Archival Weather

Salzburg

Salzburg, Austria (LOWS)

Report from: Friday, May 26, 2023 3:50 PM CEST
Current time: Tuesday, July 16, 2024 5:18 PM CEST

Current weather – Weather history – Daily summaries
Weather forecast

Temperature22.0°C (71.6°F)
Dew point11.0°C (51.8°F)
Winds 8 kts (4.1 m/s, 9.2 mph) North-Northeast (20°)
Visibility6.2 mi. (10 km)
Clouds Few clouds 5,000 ft. (1,524 m)
Ceiling: Broken clouds 6,500 ft. (1,981 m)
Altimeter30.18 in.Hg (1022 mB)
Relative humidity50 %
Density altitude708 ft. (216 m)
Remarks No significant changes expected in the next two hours
Flight conditions Visual Meteorological Conditions
Raw dataLOWS 261350Z 02008KT 9999 FEW050 BKN065 22/11 Q1022 NOSIG
An error has occurred. This application may no longer respond until reloaded. Reload 🗙